sensor_id;sensor_type;location;lat;lon;timestamp;P1;durP1;ratioP1;P2;durP2;ratioP2
25479;SDS011;13393;49.378;8.686;2024-03-08T00:01:13;25.15;;;17.33;;
25479;SDS011;13393;49.378;8.686;2024-03-08T00:03:41;21.42;;;16.02;;
25479;SDS011;13393;49.378;8.686;2024-03-08T00:06:07;23.83;;;16.77;;
25479;SDS011;13393;49.378;8.686;2024-03-08T00:08:34;21.02;;;15.65;;
25479;SDS011;13393;49.378;8.686;2024-03-08T00:11:00;23.77;;;17.10;;
25479;SDS011;13393;49.378;8.686;2024-03-08T00:13:28;26.02;;;19.05;;
25479;SDS011;13393;49.378;8.686;2024-03-08T00:15:55;23.95;;;17.50;;
25479;SDS011;13393;49.378;8.686;2024-03-08T00:18:22;25.63;;;17.70;;
25479;SDS011;13393;49.378;8.686;2024-03-08T00:20:49;23.08;;;16.27;;
25479;SDS011;13393;49.378;8.686;2024-03-08T00:23:16;24.13;;;16.00;;
25479;SDS011;13393;49.378;8.686;2024-03-08T00:25:42;24.80;;;16.70;;
25479;SDS011;13393;49.378;8.686;2024-03-08T00:28:08;24.95;;;17.45;;
25479;SDS011;13393;49.378;8.686;2024-03-08T00:30:39;26.90;;;17.27;;
25479;SDS011;13393;49.378;8.686;2024-03-08T00:33:07;25.83;;;17.05;;
25479;SDS011;13393;49.378;8.686;2024-03-08T00:35:35;25.17;;;17.67;;
25479;SDS011;13393;49.378;8.686;2024-03-08T00:38:02;24.02;;;17.08;;
25479;SDS011;13393;49.378;8.686;2024-03-08T00:40:28;26.58;;;17.65;;
25479;SDS011;13393;49.378;8.686;2024-03-08T00:42:55;25.98;;;16.80;;
25479;SDS011;13393;49.378;8.686;2024-03-08T00:45:22;27.17;;;18.13;;
25479;SDS011;13393;49.378;8.686;2024-03-08T00:47:50;25.08;;;16.85;;
25479;SDS011;13393;49.378;8.686;2024-03-08T00:50:18;23.13;;;16.80;;
25479;SDS011;13393;49.378;8.686;2024-03-08T00:52:44;27.25;;;18.50;;
25479;SDS011;13393;49.378;8.686;2024-03-08T00:55:11;24.98;;;16.88;;
25479;SDS011;13393;49.378;8.686;2024-03-08T00:57:38;33.05;;;21.40;;
25479;SDS011;13393;49.378;8.686;2024-03-08T01:00:05;26.90;;;16.92;;
25479;SDS011;13393;49.378;8.686;2024-03-08T01:02:34;26.35;;;17.42;;
25479;SDS011;13393;49.378;8.686;2024-03-08T01:05:02;27.10;;;17.02;;
25479;SDS011;13393;49.378;8.686;2024-03-08T01:07:29;25.58;;;16.77;;
25479;SDS011;13393;49.378;8.686;2024-03-08T01:09:56;22.23;;;15.05;;
25479;SDS011;13393;49.378;8.686;2024-03-08T01:12:23;23.50;;;16.55;;
25479;SDS011;13393;49.378;8.686;2024-03-08T01:14:49;23.60;;;15.60;;
25479;SDS011;13393;49.378;8.686;2024-03-08T01:17:16;23.40;;;16.48;;
25479;SDS011;13393;49.378;8.686;2024-03-08T01:19:42;26.67;;;17.27;;
25479;SDS011;13393;49.378;8.686;2024-03-08T01:22:11;27.33;;;18.17;;
25479;SDS011;13393;49.378;8.686;2024-03-08T01:24:37;25.83;;;17.15;;
25479;SDS011;13393;49.378;8.686;2024-03-08T01:27:04;24.77;;;16.45;;
25479;SDS011;13393;49.378;8.686;2024-03-08T01:29:30;25.98;;;16.63;;
25479;SDS011;13393;49.378;8.686;2024-03-08T01:31:57;26.40;;;17.15;;
25479;SDS011;13393;49.378;8.686;2024-03-08T01:34:26;26.70;;;17.13;;
25479;SDS011;13393;49.378;8.686;2024-03-08T01:36:53;27.65;;;18.25;;
25479;SDS011;13393;49.378;8.686;2024-03-08T01:39:22;24.17;;;17.65;;
25479;SDS011;13393;49.378;8.686;2024-03-08T01:41:48;25.83;;;17.80;;
25479;SDS011;13393;49.378;8.686;2024-03-08T01:44:15;28.92;;;18.95;;
25479;SDS011;13393;49.378;8.686;2024-03-08T01:46:43;28.35;;;18.38;;
25479;SDS011;13393;49.378;8.686;2024-03-08T01:49:09;29.83;;;19.13;;
25479;SDS011;13393;49.378;8.686;2024-03-08T01:51:36;26.13;;;17.70;;
25479;SDS011;13393;49.378;8.686;2024-03-08T01:54:03;23.55;;;17.35;;
25479;SDS011;13393;49.378;8.686;2024-03-08T01:56:31;29.90;;;18.45;;
25479;SDS011;13393;49.378;8.686;2024-03-08T01:58:58;22.58;;;16.27;;
25479;SDS011;13393;49.378;8.686;2024-03-08T02:01:25;25.83;;;17.52;;
25479;SDS011;13393;49.378;8.686;2024-03-08T02:03:53;26.17;;;17.38;;
25479;SDS011;13393;49.378;8.686;2024-03-08T02:06:22;24.05;;;16.60;;
25479;SDS011;13393;49.378;8.686;2024-03-08T02:08:48;25.23;;;16.88;;
25479;SDS011;13393;49.378;8.686;2024-03-08T02:11:15;28.77;;;17.70;;
25479;SDS011;13393;49.378;8.686;2024-03-08T02:13:43;28.90;;;19.55;;
25479;SDS011;13393;49.378;8.686;2024-03-08T02:16:09;25.90;;;17.33;;
25479;SDS011;13393;49.378;8.686;2024-03-08T02:18:36;25.80;;;17.27;;
25479;SDS011;13393;49.378;8.686;2024-03-08T02:21:06;24.13;;;16.27;;
25479;SDS011;13393;49.378;8.686;2024-03-08T02:23:33;29.40;;;17.52;;
25479;SDS011;13393;49.378;8.686;2024-03-08T02:25:59;27.25;;;17.92;;
25479;SDS011;13393;49.378;8.686;2024-03-08T02:28:26;25.73;;;16.92;;
25479;SDS011;13393;49.378;8.686;2024-03-08T02:30:52;25.73;;;17.13;;
25479;SDS011;13393;49.378;8.686;2024-03-08T02:33:21;25.83;;;17.20;;
25479;SDS011;13393;49.378;8.686;2024-03-08T02:35:47;24.92;;;17.02;;
25479;SDS011;13393;49.378;8.686;2024-03-08T02:38:16;25.42;;;17.05;;
25479;SDS011;13393;49.378;8.686;2024-03-08T02:40:43;26.98;;;16.75;;
25479;SDS011;13393;49.378;8.686;2024-03-08T02:43:10;25.15;;;16.98;;
25479;SDS011;13393;49.378;8.686;2024-03-08T02:45:36;24.63;;;16.50;;
25479;SDS011;13393;49.378;8.686;2024-03-08T02:48:03;25.08;;;16.77;;
25479;SDS011;13393;49.378;8.686;2024-03-08T02:50:31;23.08;;;16.85;;
25479;SDS011;13393;49.378;8.686;2024-03-08T02:52:59;29.70;;;17.52;;
25479;SDS011;13393;49.378;8.686;2024-03-08T02:55:28;23.00;;;16.13;;
25479;SDS011;13393;49.378;8.686;2024-03-08T02:57:55;27.25;;;17.33;;
25479;SDS011;13393;49.378;8.686;2024-03-08T03:00:21;27.85;;;16.40;;
25479;SDS011;13393;49.378;8.686;2024-03-08T03:02:48;25.73;;;16.60;;
25479;SDS011;13393;49.378;8.686;2024-03-08T03:05:17;23.33;;;17.05;;
25479;SDS011;13393;49.378;8.686;2024-03-08T03:07:44;25.52;;;16.77;;
25479;SDS011;13393;49.378;8.686;2024-03-08T03:10:10;24.55;;;17.08;;
25479;SDS011;13393;49.378;8.686;2024-03-08T03:12:39;25.58;;;17.50;;
25479;SDS011;13393;49.378;8.686;2024-03-08T03:15:05;26.33;;;17.30;;
25479;SDS011;13393;49.378;8.686;2024-03-08T03:17:32;25.40;;;16.63;;
25479;SDS011;13393;49.378;8.686;2024-03-08T03:20:00;25.33;;;17.38;;
25479;SDS011;13393;49.378;8.686;2024-03-08T03:22:30;25.20;;;16.70;;
25479;SDS011;13393;49.378;8.686;2024-03-08T03:24:56;24.50;;;17.23;;
25479;SDS011;13393;49.378;8.686;2024-03-08T03:27:23;26.98;;;17.40;;
25479;SDS011;13393;49.378;8.686;2024-03-08T03:29:52;26.98;;;17.27;;
25479;SDS011;13393;49.378;8.686;2024-03-08T03:32:20;26.73;;;16.52;;
25479;SDS011;13393;49.378;8.686;2024-03-08T03:34:47;30.38;;;18.02;;
25479;SDS011;13393;49.378;8.686;2024-03-08T03:37:17;24.85;;;16.35;;
25479;SDS011;13393;49.378;8.686;2024-03-08T03:39:46;25.55;;;17.35;;
25479;SDS011;13393;49.378;8.686;2024-03-08T03:42:14;28.52;;;16.77;;
25479;SDS011;13393;49.378;8.686;2024-03-08T03:44:41;22.75;;;16.05;;
25479;SDS011;13393;49.378;8.686;2024-03-08T03:47:09;25.63;;;18.55;;
25479;SDS011;13393;49.378;8.686;2024-03-08T03:49:36;27.17;;;17.30;;
25479;SDS011;13393;49.378;8.686;2024-03-08T03:52:05;26.70;;;16.60;;
25479;SDS011;13393;49.378;8.686;2024-03-08T03:54:33;28.48;;;17.77;;
25479;SDS011;13393;49.378;8.686;2024-03-08T03:57:00;32.53;;;20.15;;
25479;SDS011;13393;49.378;8.686;2024-03-08T03:59:27;33.17;;;21.13;;
25479;SDS011;13393;49.378;8.686;2024-03-08T04:01:54;28.67;;;19.25;;
25479;SDS011;13393;49.378;8.686;2024-03-08T04:04:22;28.90;;;18.40;;
25479;SDS011;13393;49.378;8.686;2024-03-08T04:06:49;26.48;;;17.63;;
25479;SDS011;13393;49.378;8.686;2024-03-08T04:09:16;26.75;;;17.95;;
25479;SDS011;13393;49.378;8.686;2024-03-08T04:11:44;25.65;;;16.90;;
25479;SDS011;13393;49.378;8.686;2024-03-08T04:14:10;27.23;;;16.80;;
25479;SDS011;13393;49.378;8.686;2024-03-08T04:16:37;29.83;;;17.73;;
25479;SDS011;13393;49.378;8.686;2024-03-08T04:19:03;24.58;;;16.85;;
25479;SDS011;13393;49.378;8.686;2024-03-08T04:21:32;30.83;;;18.75;;
25479;SDS011;13393;49.378;8.686;2024-03-08T04:23:58;28.13;;;18.35;;
25479;SDS011;13393;49.378;8.686;2024-03-08T04:26:25;28.40;;;18.65;;
25479;SDS011;13393;49.378;8.686;2024-03-08T04:28:51;28.90;;;17.92;;
25479;SDS011;13393;49.378;8.686;2024-03-08T04:31:18;25.85;;;18.42;;
25479;SDS011;13393;49.378;8.686;2024-03-08T04:33:44;28.25;;;18.48;;
25479;SDS011;13393;49.378;8.686;2024-03-08T04:36:10;26.60;;;18.50;;
25479;SDS011;13393;49.378;8.686;2024-03-08T04:38:40;26.80;;;18.23;;
25479;SDS011;13393;49.378;8.686;2024-03-08T04:41:06;30.20;;;17.95;;
25479;SDS011;13393;49.378;8.686;2024-03-08T04:43:33;25.38;;;17.33;;
25479;SDS011;13393;49.378;8.686;2024-03-08T04:46:00;28.23;;;18.20;;
25479;SDS011;13393;49.378;8.686;2024-03-08T04:48:28;32.60;;;20.10;;
25479;SDS011;13393;49.378;8.686;2024-03-08T04:50:55;26.55;;;17.95;;
25479;SDS011;13393;49.378;8.686;2024-03-08T04:53:22;27.55;;;18.05;;
25479;SDS011;13393;49.378;8.686;2024-03-08T04:55:50;26.73;;;17.73;;
25479;SDS011;13393;49.378;8.686;2024-03-08T04:58:16;29.60;;;19.35;;
25479;SDS011;13393;49.378;8.686;2024-03-08T05:00:42;25.92;;;17.73;;
25479;SDS011;13393;49.378;8.686;2024-03-08T05:03:09;31.58;;;18.45;;
25479;SDS011;13393;49.378;8.686;2024-03-08T05:05:35;31.42;;;18.95;;
25479;SDS011;13393;49.378;8.686;2024-03-08T05:08:02;29.75;;;19.05;;
25479;SDS011;13393;49.378;8.686;2024-03-08T05:10:28;30.30;;;18.13;;
25479;SDS011;13393;49.378;8.686;2024-03-08T05:12:56;29.02;;;18.88;;
25479;SDS011;13393;49.378;8.686;2024-03-08T05:15:23;27.75;;;17.13;;
25479;SDS011;13393;49.378;8.686;2024-03-08T05:17:50;30.50;;;18.65;;
25479;SDS011;13393;49.378;8.686;2024-03-08T05:20:18;27.65;;;18.67;;
25479;SDS011;13393;49.378;8.686;2024-03-08T05:22:44;28.95;;;18.15;;
25479;SDS011;13393;49.378;8.686;2024-03-08T05:25:11;28.50;;;18.90;;
25479;SDS011;13393;49.378;8.686;2024-03-08T05:27:39;30.63;;;18.70;;
25479;SDS011;13393;49.378;8.686;2024-03-08T05:30:08;26.95;;;18.27;;
25479;SDS011;13393;49.378;8.686;2024-03-08T05:32:39;29.70;;;19.77;;
25479;SDS011;13393;49.378;8.686;2024-03-08T05:35:09;32.10;;;20.25;;
25479;SDS011;13393;49.378;8.686;2024-03-08T05:37:36;33.70;;;19.88;;
25479;SDS011;13393;49.378;8.686;2024-03-08T05:40:03;27.65;;;18.65;;
25479;SDS011;13393;49.378;8.686;2024-03-08T05:42:34;28.15;;;19.10;;
25479;SDS011;13393;49.378;8.686;2024-03-08T05:45:01;29.40;;;18.17;;
25479;SDS011;13393;49.378;8.686;2024-03-08T05:47:28;27.92;;;20.10;;
25479;SDS011;13393;49.378;8.686;2024-03-08T05:49:55;29.10;;;18.48;;
25479;SDS011;13393;49.378;8.686;2024-03-08T05:52:21;31.15;;;20.10;;
25479;SDS011;13393;49.378;8.686;2024-03-08T05:54:48;33.85;;;20.60;;
25479;SDS011;13393;49.378;8.686;2024-03-08T05:57:14;30.02;;;19.02;;
25479;SDS011;13393;49.378;8.686;2024-03-08T05:59:42;34.13;;;21.55;;
25479;SDS011;13393;49.378;8.686;2024-03-08T06:02:08;33.72;;;19.75;;
25479;SDS011;13393;49.378;8.686;2024-03-08T06:04:36;31.58;;;19.42;;
25479;SDS011;13393;49.378;8.686;2024-03-08T06:07:03;32.20;;;21.55;;
25479;SDS011;13393;49.378;8.686;2024-03-08T06:09:29;29.67;;;18.42;;
25479;SDS011;13393;49.378;8.686;2024-03-08T06:11:56;31.92;;;19.75;;
25479;SDS011;13393;49.378;8.686;2024-03-08T06:14:22;28.90;;;18.65;;
25479;SDS011;13393;49.378;8.686;2024-03-08T06:16:49;29.77;;;20.40;;
25479;SDS011;13393;49.378;8.686;2024-03-08T06:19:16;31.17;;;19.25;;
25479;SDS011;13393;49.378;8.686;2024-03-08T06:21:44;34.10;;;20.33;;
25479;SDS011;13393;49.378;8.686;2024-03-08T06:24:10;30.35;;;20.58;;
25479;SDS011;13393;49.378;8.686;2024-03-08T06:26:37;30.52;;;19.27;;
25479;SDS011;13393;49.378;8.686;2024-03-08T06:29:03;30.73;;;20.67;;
25479;SDS011;13393;49.378;8.686;2024-03-08T06:31:31;33.80;;;21.02;;
25479;SDS011;13393;49.378;8.686;2024-03-08T06:33:59;31.38;;;19.33;;
25479;SDS011;13393;49.378;8.686;2024-03-08T06:36:25;31.45;;;20.40;;
25479;SDS011;13393;49.378;8.686;2024-03-08T06:38:54;33.03;;;21.05;;
25479;SDS011;13393;49.378;8.686;2024-03-08T06:41:22;29.83;;;19.40;;
25479;SDS011;13393;49.378;8.686;2024-03-08T06:43:48;30.70;;;20.63;;
25479;SDS011;13393;49.378;8.686;2024-03-08T06:46:16;30.75;;;20.30;;
25479;SDS011;13393;49.378;8.686;2024-03-08T06:48:43;28.65;;;19.08;;
25479;SDS011;13393;49.378;8.686;2024-03-08T06:51:10;33.65;;;20.52;;
25479;SDS011;13393;49.378;8.686;2024-03-08T06:53:37;29.33;;;19.95;;
25479;SDS011;13393;49.378;8.686;2024-03-08T06:56:05;29.33;;;19.95;;
25479;SDS011;13393;49.378;8.686;2024-03-08T06:58:32;31.70;;;19.95;;
25479;SDS011;13393;49.378;8.686;2024-03-08T07:00:59;29.38;;;19.50;;
25479;SDS011;13393;49.378;8.686;2024-03-08T07:03:29;29.88;;;19.55;;
25479;SDS011;13393;49.378;8.686;2024-03-08T07:05:55;34.05;;;21.73;;
25479;SDS011;13393;49.378;8.686;2024-03-08T07:08:23;30.65;;;19.35;;
25479;SDS011;13393;49.378;8.686;2024-03-08T07:10:49;32.20;;;20.85;;
25479;SDS011;13393;49.378;8.686;2024-03-08T07:13:17;31.52;;;19.73;;
25479;SDS011;13393;49.378;8.686;2024-03-08T07:15:44;30.25;;;19.67;;
25479;SDS011;13393;49.378;8.686;2024-03-08T07:18:11;27.30;;;19.08;;
25479;SDS011;13393;49.378;8.686;2024-03-08T07:20:40;25.85;;;18.13;;
25479;SDS011;13393;49.378;8.686;2024-03-08T07:23:06;26.27;;;18.30;;
25479;SDS011;13393;49.378;8.686;2024-03-08T07:25:33;29.25;;;18.67;;
25479;SDS011;13393;49.378;8.686;2024-03-08T07:28:00;27.70;;;19.70;;
25479;SDS011;13393;49.378;8.686;2024-03-08T07:30:28;34.22;;;20.73;;
25479;SDS011;13393;49.378;8.686;2024-03-08T07:33:12;27.60;;;18.83;;
25479;SDS011;13393;49.378;8.686;2024-03-08T07:35:39;28.35;;;18.75;;
25479;SDS011;13393;49.378;8.686;2024-03-08T07:38:06;25.92;;;17.75;;
25479;SDS011;13393;49.378;8.686;2024-03-08T07:40:34;27.30;;;18.63;;
25479;SDS011;13393;49.378;8.686;2024-03-08T07:43:01;30.70;;;20.13;;
25479;SDS011;13393;49.378;8.686;2024-03-08T07:45:30;27.55;;;19.05;;
25479;SDS011;13393;49.378;8.686;2024-03-08T07:47:56;27.17;;;18.35;;
25479;SDS011;13393;49.378;8.686;2024-03-08T07:50:23;28.52;;;18.95;;
25479;SDS011;13393;49.378;8.686;2024-03-08T07:52:49;28.67;;;18.65;;
25479;SDS011;13393;49.378;8.686;2024-03-08T07:55:16;27.08;;;17.92;;
25479;SDS011;13393;49.378;8.686;2024-03-08T07:57:42;29.45;;;19.40;;
25479;SDS011;13393;49.378;8.686;2024-03-08T08:00:09;27.90;;;18.00;;
25479;SDS011;13393;49.378;8.686;2024-03-08T08:02:37;31.48;;;19.13;;
25479;SDS011;13393;49.378;8.686;2024-03-08T08:05:04;25.17;;;16.58;;
25479;SDS011;13393;49.378;8.686;2024-03-08T08:07:33;27.67;;;18.05;;
25479;SDS011;13393;49.378;8.686;2024-03-08T08:09:59;26.65;;;18.35;;
25479;SDS011;13393;49.378;8.686;2024-03-08T08:12:26;24.98;;;17.65;;
25479;SDS011;13393;49.378;8.686;2024-03-08T08:14:54;30.13;;;19.83;;
25479;SDS011;13393;49.378;8.686;2024-03-08T08:17:21;26.48;;;18.25;;
25479;SDS011;13393;49.378;8.686;2024-03-08T08:19:49;23.38;;;16.85;;
25479;SDS011;13393;49.378;8.686;2024-03-08T08:22:16;28.20;;;18.27;;
25479;SDS011;13393;49.378;8.686;2024-03-08T08:24:43;26.27;;;18.15;;
25479;SDS011;13393;49.378;8.686;2024-03-08T08:27:09;26.08;;;17.35;;
25479;SDS011;13393;49.378;8.686;2024-03-08T08:29:37;25.67;;;16.70;;
25479;SDS011;13393;49.378;8.686;2024-03-08T08:32:04;27.27;;;18.35;;
25479;SDS011;13393;49.378;8.686;2024-03-08T08:34:30;30.17;;;20.17;;
25479;SDS011;13393;49.378;8.686;2024-03-08T08:36:58;27.50;;;18.42;;
25479;SDS011;13393;49.378;8.686;2024-03-08T08:39:24;26.77;;;19.02;;
25479;SDS011;13393;49.378;8.686;2024-03-08T08:41:51;26.85;;;18.10;;
25479;SDS011;13393;49.378;8.686;2024-03-08T08:44:17;27.48;;;19.65;;
25479;SDS011;13393;49.378;8.686;2024-03-08T08:46:44;26.48;;;17.27;;
25479;SDS011;13393;49.378;8.686;2024-03-08T08:49:11;26.92;;;18.00;;
25479;SDS011;13393;49.378;8.686;2024-03-08T08:51:39;25.33;;;18.15;;
25479;SDS011;13393;49.378;8.686;2024-03-08T08:54:07;25.83;;;18.17;;
25479;SDS011;13393;49.378;8.686;2024-03-08T08:56:34;26.95;;;18.58;;
25479;SDS011;13393;49.378;8.686;2024-03-08T08:59:01;29.80;;;18.52;;
25479;SDS011;13393;49.378;8.686;2024-03-08T09:01:29;26.42;;;18.70;;
25479;SDS011;13393;49.378;8.686;2024-03-08T09:03:56;25.88;;;18.48;;
25479;SDS011;13393;49.378;8.686;2024-03-08T09:06:22;26.20;;;18.08;;
25479;SDS011;13393;49.378;8.686;2024-03-08T09:08:50;24.92;;;17.13;;
25479;SDS011;13393;49.378;8.686;2024-03-08T09:11:18;25.58;;;18.45;;
25479;SDS011;13393;49.378;8.686;2024-03-08T09:13:44;24.42;;;18.00;;
25479;SDS011;13393;49.378;8.686;2024-03-08T09:16:11;23.15;;;17.00;;
25479;SDS011;13393;49.378;8.686;2024-03-08T09:18:38;26.95;;;17.58;;
25479;SDS011;13393;49.378;8.686;2024-03-08T09:21:04;24.58;;;17.27;;
25479;SDS011;13393;49.378;8.686;2024-03-08T09:23:34;25.42;;;17.40;;
25479;SDS011;13393;49.378;8.686;2024-03-08T09:26:01;25.92;;;17.38;;
25479;SDS011;13393;49.378;8.686;2024-03-08T09:28:29;25.48;;;17.38;;
25479;SDS011;13393;49.378;8.686;2024-03-08T09:30:56;25.90;;;17.63;;
25479;SDS011;13393;49.378;8.686;2024-03-08T09:33:23;26.40;;;16.73;;
25479;SDS011;13393;49.378;8.686;2024-03-08T09:35:50;25.17;;;16.92;;
25479;SDS011;13393;49.378;8.686;2024-03-08T09:38:18;23.75;;;17.42;;
25479;SDS011;13393;49.378;8.686;2024-03-08T09:40:45;23.02;;;16.00;;
25479;SDS011;13393;49.378;8.686;2024-03-08T09:43:13;21.45;;;15.82;;
25479;SDS011;13393;49.378;8.686;2024-03-08T09:45:41;23.17;;;17.02;;
25479;SDS011;13393;49.378;8.686;2024-03-08T09:48:08;22.33;;;16.42;;
25479;SDS011;13393;49.378;8.686;2024-03-08T09:50:37;21.38;;;15.05;;
25479;SDS011;13393;49.378;8.686;2024-03-08T09:53:03;22.65;;;15.50;;
25479;SDS011;13393;49.378;8.686;2024-03-08T09:55:33;20.40;;;15.27;;
25479;SDS011;13393;49.378;8.686;2024-03-08T09:58:01;21.60;;;15.75;;
25479;SDS011;13393;49.378;8.686;2024-03-08T10:01:02;21.67;;;16.30;;
25479;SDS011;13393;49.378;8.686;2024-03-08T10:03:29;20.85;;;15.50;;
25479;SDS011;13393;49.378;8.686;2024-03-08T10:05:59;23.73;;;15.50;;
25479;SDS011;13393;49.378;8.686;2024-03-08T10:08:26;20.33;;;15.25;;
25479;SDS011;13393;49.378;8.686;2024-03-08T10:10:54;22.42;;;15.90;;
25479;SDS011;13393;49.378;8.686;2024-03-08T10:13:21;23.40;;;16.10;;
25479;SDS011;13393;49.378;8.686;2024-03-08T10:15:48;25.70;;;17.75;;
25479;SDS011;13393;49.378;8.686;2024-03-08T10:18:17;28.13;;;20.25;;
25479;SDS011;13393;49.378;8.686;2024-03-08T10:20:44;29.83;;;18.52;;
25479;SDS011;13393;49.378;8.686;2024-03-08T10:23:11;21.33;;;16.58;;
25479;SDS011;13393;49.378;8.686;2024-03-08T10:25:37;26.92;;;19.05;;
25479;SDS011;13393;49.378;8.686;2024-03-08T10:28:04;26.35;;;17.85;;
25479;SDS011;13393;49.378;8.686;2024-03-08T10:30:31;20.95;;;16.27;;
25479;SDS011;13393;49.378;8.686;2024-03-08T10:32:58;24.52;;;18.27;;
25479;SDS011;13393;49.378;8.686;2024-03-08T10:35:25;23.85;;;16.45;;
25479;SDS011;13393;49.378;8.686;2024-03-08T10:37:52;24.05;;;17.73;;
25479;SDS011;13393;49.378;8.686;2024-03-08T10:40:24;21.67;;;15.75;;
25479;SDS011;13393;49.378;8.686;2024-03-08T10:42:51;22.70;;;15.75;;
25479;SDS011;13393;49.378;8.686;2024-03-08T10:45:21;26.80;;;18.13;;
25479;SDS011;13393;49.378;8.686;2024-03-08T10:47:49;25.23;;;16.33;;
25479;SDS011;13393;49.378;8.686;2024-03-08T10:52:52;22.70;;;16.23;;
25479;SDS011;13393;49.378;8.686;2024-03-08T10:55:18;23.95;;;17.05;;
25479;SDS011;13393;49.378;8.686;2024-03-08T10:57:45;21.80;;;15.95;;
25479;SDS011;13393;49.378;8.686;2024-03-08T11:00:12;21.98;;;16.35;;
25479;SDS011;13393;49.378;8.686;2024-03-08T11:02:43;22.33;;;16.55;;
25479;SDS011;13393;49.378;8.686;2024-03-08T11:05:09;24.83;;;17.00;;
25479;SDS011;13393;49.378;8.686;2024-03-08T11:07:40;22.00;;;15.95;;
25479;SDS011;13393;49.378;8.686;2024-03-08T11:10:18;25.30;;;18.17;;
25479;SDS011;13393;49.378;8.686;2024-03-08T11:12:44;22.33;;;16.40;;
25479;SDS011;13393;49.378;8.686;2024-03-08T11:15:13;21.30;;;16.60;;
25479;SDS011;13393;49.378;8.686;2024-03-08T11:17:40;24.67;;;17.60;;
25479;SDS011;13393;49.378;8.686;2024-03-08T11:20:11;22.33;;;16.65;;
25479;SDS011;13393;49.378;8.686;2024-03-08T11:22:41;22.90;;;16.65;;
25479;SDS011;13393;49.378;8.686;2024-03-08T11:28:06;26.63;;;17.48;;
25479;SDS011;13393;49.378;8.686;2024-03-08T11:30:32;21.65;;;16.42;;
25479;SDS011;13393;49.378;8.686;2024-03-08T11:33:00;23.23;;;16.83;;
25479;SDS011;13393;49.378;8.686;2024-03-08T11:35:28;24.77;;;17.02;;
25479;SDS011;13393;49.378;8.686;2024-03-08T11:37:54;24.27;;;17.85;;
25479;SDS011;13393;49.378;8.686;2024-03-08T11:40:25;21.92;;;16.77;;
25479;SDS011;13393;49.378;8.686;2024-03-08T11:42:52;22.00;;;16.65;;
25479;SDS011;13393;49.378;8.686;2024-03-08T11:45:20;23.65;;;16.77;;
25479;SDS011;13393;49.378;8.686;2024-03-08T11:47:47;23.65;;;17.13;;
25479;SDS011;13393;49.378;8.686;2024-03-08T11:50:14;24.88;;;18.02;;
25479;SDS011;13393;49.378;8.686;2024-03-08T11:52:40;23.20;;;16.75;;
25479;SDS011;13393;49.378;8.686;2024-03-08T11:55:08;21.45;;;17.50;;
25479;SDS011;13393;49.378;8.686;2024-03-08T11:57:36;22.85;;;17.00;;
25479;SDS011;13393;49.378;8.686;2024-03-08T12:00:03;28.50;;;17.10;;
25479;SDS011;13393;49.378;8.686;2024-03-08T12:02:32;21.17;;;16.55;;
25479;SDS011;13393;49.378;8.686;2024-03-08T12:05:00;23.77;;;17.60;;
25479;SDS011;13393;49.378;8.686;2024-03-08T12:07:28;22.48;;;16.20;;
25479;SDS011;13393;49.378;8.686;2024-03-08T12:12:43;23.42;;;17.15;;
25479;SDS011;13393;49.378;8.686;2024-03-08T12:15:10;22.70;;;17.45;;
25479;SDS011;13393;49.378;8.686;2024-03-08T12:17:37;23.67;;;17.20;;
25479;SDS011;13393;49.378;8.686;2024-03-08T12:20:11;24.75;;;17.55;;
25479;SDS011;13393;49.378;8.686;2024-03-08T12:22:40;22.92;;;17.52;;
25479;SDS011;13393;49.378;8.686;2024-03-08T12:25:07;23.00;;;17.90;;
25479;SDS011;13393;49.378;8.686;2024-03-08T12:27:36;24.73;;;17.08;;
25479;SDS011;13393;49.378;8.686;2024-03-08T12:30:16;22.77;;;16.48;;
25479;SDS011;13393;49.378;8.686;2024-03-08T12:32:46;25.38;;;17.02;;
25479;SDS011;13393;49.378;8.686;2024-03-08T12:35:13;22.60;;;16.80;;
25479;SDS011;13393;49.378;8.686;2024-03-08T12:37:39;22.20;;;17.15;;
25479;SDS011;13393;49.378;8.686;2024-03-08T12:40:07;21.55;;;16.98;;
25479;SDS011;13393;49.378;8.686;2024-03-08T12:42:34;20.35;;;16.17;;
25479;SDS011;13393;49.378;8.686;2024-03-08T12:45:01;21.60;;;16.63;;
25479;SDS011;13393;49.378;8.686;2024-03-08T12:47:29;22.15;;;16.55;;
25479;SDS011;13393;49.378;8.686;2024-03-08T12:49:56;19.38;;;15.25;;
25479;SDS011;13393;49.378;8.686;2024-03-08T12:52:23;19.52;;;15.85;;
25479;SDS011;13393;49.378;8.686;2024-03-08T12:54:51;23.13;;;17.73;;
25479;SDS011;13393;49.378;8.686;2024-03-08T12:57:17;20.20;;;16.70;;
25479;SDS011;13393;49.378;8.686;2024-03-08T12:59:44;21.55;;;16.63;;
25479;SDS011;13393;49.378;8.686;2024-03-08T13:02:10;20.65;;;16.45;;
25479;SDS011;13393;49.378;8.686;2024-03-08T13:04:38;23.02;;;16.58;;
25479;SDS011;13393;49.378;8.686;2024-03-08T13:07:05;19.85;;;16.20;;
25479;SDS011;13393;49.378;8.686;2024-03-08T13:09:32;21.10;;;17.02;;
25479;SDS011;13393;49.378;8.686;2024-03-08T13:12:02;20.10;;;15.98;;
25479;SDS011;13393;49.378;8.686;2024-03-08T13:14:29;21.95;;;16.20;;
25479;SDS011;13393;49.378;8.686;2024-03-08T13:16:57;20.27;;;15.65;;
25479;SDS011;13393;49.378;8.686;2024-03-08T13:19:24;19.23;;;15.75;;
25479;SDS011;13393;49.378;8.686;2024-03-08T13:21:54;21.15;;;16.40;;
25479;SDS011;13393;49.378;8.686;2024-03-08T13:24:22;20.92;;;16.50;;
25479;SDS011;13393;49.378;8.686;2024-03-08T13:26:49;19.88;;;15.93;;
25479;SDS011;13393;49.378;8.686;2024-03-08T13:29:16;20.98;;;15.55;;
25479;SDS011;13393;49.378;8.686;2024-03-08T13:31:43;21.10;;;16.83;;
25479;SDS011;13393;49.378;8.686;2024-03-08T13:34:11;23.17;;;16.25;;
25479;SDS011;13393;49.378;8.686;2024-03-08T13:36:40;20.30;;;15.65;;
25479;SDS011;13393;49.378;8.686;2024-03-08T13:39:11;19.55;;;16.15;;
25479;SDS011;13393;49.378;8.686;2024-03-08T13:41:40;20.10;;;15.70;;
25479;SDS011;13393;49.378;8.686;2024-03-08T13:44:06;17.73;;;15.23;;
25479;SDS011;13393;49.378;8.686;2024-03-08T13:46:37;20.73;;;15.55;;
25479;SDS011;13393;49.378;8.686;2024-03-08T13:49:04;19.98;;;16.08;;
25479;SDS011;13393;49.378;8.686;2024-03-08T13:51:33;20.08;;;16.30;;
25479;SDS011;13393;49.378;8.686;2024-03-08T13:53:59;21.02;;;15.98;;
25479;SDS011;13393;49.378;8.686;2024-03-08T13:56:27;19.35;;;15.05;;
25479;SDS011;13393;49.378;8.686;2024-03-08T13:58:54;19.30;;;14.93;;
25479;SDS011;13393;49.378;8.686;2024-03-08T14:01:22;19.98;;;15.75;;
25479;SDS011;13393;49.378;8.686;2024-03-08T14:03:49;18.15;;;15.25;;
25479;SDS011;13393;49.378;8.686;2024-03-08T14:06:15;21.40;;;15.93;;
25479;SDS011;13393;49.378;8.686;2024-03-08T14:08:42;19.75;;;15.13;;
25479;SDS011;13393;49.378;8.686;2024-03-08T14:11:08;19.60;;;15.55;;
25479;SDS011;13393;49.378;8.686;2024-03-08T14:13:43;18.50;;;15.70;;
25479;SDS011;13393;49.378;8.686;2024-03-08T14:16:10;18.30;;;14.88;;
25479;SDS011;13393;49.378;8.686;2024-03-08T14:18:38;18.92;;;14.60;;
25479;SDS011;13393;49.378;8.686;2024-03-08T14:21:05;15.80;;;13.98;;
25479;SDS011;13393;49.378;8.686;2024-03-08T14:23:33;17.40;;;14.77;;
25479;SDS011;13393;49.378;8.686;2024-03-08T14:25:59;16.20;;;13.38;;
25479;SDS011;13393;49.378;8.686;2024-03-08T14:28:26;18.08;;;15.68;;
25479;SDS011;13393;49.378;8.686;2024-03-08T14:30:54;17.80;;;14.90;;